Time;durP1;ratioP1;P1;durP2;ratioP2;P2;SDS_P1;SDS_P2;PMS_P1;PMS_P2;Temp;Humidity;BMP_temperature;BMP_pressure;BME280_temperature;BME280_humidity;BME280_pressure;Samples;Min_cycle;Max_cycle;Signal;HPM_P1;HPM_P2
2023/02/25 00:01:31;;;;;;;13.85;6.50;;;7.50;99.90;;;;;;5040372;28;20220;-77
2023/02/25 00:04:03;;;;;;;24.20;14.60;;;7.50;99.90;;;;;;5049955;28;20216;-75
2023/02/25 00:06:32;;;;;;;11.57;5.15;;;7.50;99.90;;;;;;5065916;28;20318;-77
2023/02/25 00:09:10;;;;;;;6.57;3.50;;;7.40;99.90;;;;;;5062605;28;20239;-78
2023/02/25 00:11:37;;;;;;;11.70;4.65;;;7.40;99.90;;;;;;5041334;28;20224;-77
2023/02/25 00:14:04;;;;;;;13.00;4.70;;;7.40;99.90;;;;;;5051656;28;20225;-77
2023/02/25 00:16:32;;;;;;;7.50;3.30;;;7.40;99.90;;;;;;5058209;28;20382;-76
2023/02/25 00:19:00;;;;;;;23.05;11.70;;;7.40;99.90;;;;;;5053992;28;20229;-75
2023/02/25 00:21:28;;;;;;;11.50;4.30;;;7.40;99.90;;;;;;5057279;28;20221;-75
2023/02/25 00:23:59;;;;;;;6.40;2.30;;;7.40;99.90;;;;;;5064870;28;20227;-77
2023/02/25 00:26:30;;;;;;;4.72;3.00;;;7.30;99.90;;;;;;5051870;28;20220;-75
2023/02/25 00:29:00;;;;;;;7.88;2.33;;;7.20;99.90;;;;;;5054636;28;20227;-75
2023/02/25 00:31:27;;;;;;;2.88;1.70;;;7.10;99.90;;;;;;5064276;28;20253;-77
2023/02/25 00:33:54;;;;;;;2.45;2.20;;;7.00;99.90;;;;;;5051474;28;20230;-79
2023/02/25 00:36:25;;;;;;;6.85;3.05;;;6.80;99.90;;;;;;5060823;28;20237;-77
2023/02/25 00:38:55;;;;;;;12.27;6.53;;;6.70;99.90;;;;;;5051743;28;20229;-77
2023/02/25 00:41:30;;;;;;;4.57;2.88;;;6.70;99.90;;;;;;5051551;28;20665;-76
2023/02/25 00:43:59;;;;;;;4.93;2.35;;;6.60;99.90;;;;;;5063251;28;20250;-75
2023/02/25 00:46:27;;;;;;;3.35;2.58;;;6.50;99.90;;;;;;5055258;28;20223;-76
2023/02/25 00:48:55;;;;;;;1.90;1.40;;;6.40;99.90;;;;;;5057398;28;20312;-78
2023/02/25 00:51:25;;;;;;;4.13;1.60;;;6.30;99.90;;;;;;5058415;28;20278;-77
2023/02/25 00:53:54;;;;;;;1.85;1.45;;;6.30;99.90;;;;;;5051045;28;20259;-76
2023/02/25 00:56:24;;;;;;;2.55;1.40;;;6.30;99.90;;;;;;5064727;28;20233;-78
2023/02/25 00:58:52;;;;;;;1.58;1.48;;;6.20;99.90;;;;;;5058073;28;20561;-76
2023/02/25 01:01:22;;;;;;;3.75;1.30;;;6.20;99.90;;;;;;5055124;28;20674;-76
2023/02/25 01:03:57;;;;;;;3.13;1.83;;;6.10;99.90;;;;;;5061960;28;20235;-76
2023/02/25 01:06:25;;;;;;;2.72;2.38;;;6.10;99.90;;;;;;5051929;28;20653;-78
2023/02/25 01:08:53;;;;;;;3.75;1.80;;;6.10;99.90;;;;;;5050812;28;20569;-77
2023/02/25 01:11:26;;;;;;;2.42;1.67;;;6.10;99.90;;;;;;5068138;28;20231;-78
2023/02/25 01:13:54;;;;;;;2.70;2.30;;;6.10;99.90;;;;;;5054790;28;20272;-78
2023/02/25 01:16:28;;;;;;;4.35;2.10;;;6.10;99.90;;;;;;5063750;28;20235;-78
2023/02/25 01:18:57;;;;;;;3.58;1.70;;;6.10;99.90;;;;;;5060723;28;20590;-76
2023/02/25 01:21:26;;;;;;;10.30;6.43;;;6.10;99.90;;;;;;5054277;28;20666;-75
2023/02/25 01:23:59;;;;;;;3.30;2.05;;;6.10;99.90;;;;;;5055900;28;20229;-76
2023/02/25 01:26:29;;;;;;;4.72;2.05;;;6.10;99.90;;;;;;5069630;28;20281;-76
2023/02/25 01:28:56;;;;;;;5.15;3.20;;;6.10;99.90;;;;;;5061035;28;20223;-78
2023/02/25 01:31:28;;;;;;;3.25;2.13;;;6.20;99.90;;;;;;5054959;28;20216;-75
2023/02/25 01:33:55;;;;;;;1.95;1.80;;;6.20;99.90;;;;;;5066911;28;20278;-77
2023/02/25 01:36:22;;;;;;;4.18;1.80;;;6.20;99.90;;;;;;5061174;28;20220;-77
2023/02/25 01:38:50;;;;;;;2.53;1.60;;;6.20;99.90;;;;;;5061159;28;20327;-77
2023/02/25 01:41:17;;;;;;;3.85;2.33;;;6.30;99.90;;;;;;5067954;28;20236;-75
2023/02/25 01:44:05;;;;;;;3.20;2.60;;;6.30;99.90;;;;;;5054259;28;20228;-75
2023/02/25 01:46:32;;;;;;;4.60;3.03;;;6.30;99.90;;;;;;5054467;28;20305;-78
2023/02/25 01:49:00;;;;;;;5.13;2.42;;;6.30;99.90;;;;;;5053626;28;20236;-75
2023/02/25 01:51:28;;;;;;;4.10;3.20;;;6.30;99.90;;;;;;5037705;28;20678;-77
2023/02/25 01:53:56;;;;;;;4.68;3.67;;;6.40;99.90;;;;;;5045345;28;20225;-77
2023/02/25 01:56:26;;;;;;;3.42;2.72;;;6.40;99.90;;;;;;5036604;28;20844;-77
2023/02/25 01:58:56;;;;;;;4.60;3.72;;;6.40;99.90;;;;;;5050043;28;20282;-75
2023/02/25 02:01:29;;;;;;;2.88;2.67;;;6.40;99.90;;;;;;5053583;28;20699;-77
2023/02/25 02:03:56;;;;;;;9.63;3.10;;;6.50;99.90;;;;;;5051814;28;20244;-78
2023/02/25 02:06:29;;;;;;;5.38;2.80;;;6.50;99.90;;;;;;5052928;28;20282;-76
2023/02/25 02:08:57;;;;;;;9.40;3.88;;;6.40;99.90;;;;;;5053651;28;20220;-76
2023/02/25 02:11:24;;;;;;;8.63;3.78;;;6.50;99.90;;;;;;5053262;28;20259;-77
2023/02/25 02:13:54;;;;;;;5.40;4.20;;;6.50;99.90;;;;;;5053362;28;20239;-77
2023/02/25 02:16:40;;;;;;;3.58;3.03;;;6.50;99.90;;;;;;5066529;28;20254;-75
2023/02/25 02:19:21;;;;;;;7.53;4.40;;;6.50;99.90;;;;;;5063093;28;20239;-76
2023/02/25 02:22:00;;;;;;;2.78;2.47;;;6.40;99.90;;;;;;5065716;28;20237;-75
2023/02/25 02:25:00;;;;;;;2.33;1.80;;;6.50;99.90;;;;;;5053900;28;20646;-76
2023/02/25 02:27:35;;;;;;;1.98;1.60;;;6.50;99.90;;;;;;5061998;28;20290;-77
2023/02/25 02:30:39;;;;;;;5.03;3.90;;;6.50;99.90;;;;;;5060901;28;20612;-75
2023/02/25 02:33:16;;;;;;;12.48;8.20;;;6.50;99.90;;;;;;5053408;28;20216;-77
2023/02/25 02:35:49;;;;;;;2.25;2.05;;;6.50;99.90;;;;;;5055506;28;20223;-74
2023/02/25 02:38:26;;;;;;;2.60;2.40;;;6.50;99.90;;;;;;5049060;28;20715;-77
2023/02/25 02:41:01;;;;;;;5.35;2.90;;;6.60;99.90;;;;;;5066693;28;20225;-76
2023/02/25 02:43:39;;;;;;;5.55;4.22;;;6.50;99.90;;;;;;5064758;28;20238;-75
2023/02/25 02:46:14;;;;;;;2.45;2.25;;;6.50;99.90;;;;;;5061233;28;20235;-75
2023/02/25 02:48:47;;;;;;;1.90;1.80;;;6.50;99.90;;;;;;5053658;28;20225;-76
2023/02/25 02:51:19;;;;;;;3.00;2.33;;;6.50;99.90;;;;;;5063623;28;20269;-75
2023/02/25 02:53:50;;;;;;;2.25;2.00;;;6.50;99.90;;;;;;5052362;28;20263;-77
2023/02/25 02:56:20;;;;;;;3.25;2.95;;;6.50;99.90;;;;;;5052815;28;20229;-75
2023/02/25 02:58:52;;;;;;;2.72;2.10;;;6.50;99.90;;;;;;5055085;28;20229;-75
2023/02/25 03:01:23;;;;;;;3.15;2.50;;;6.50;99.90;;;;;;5050837;28;20503;-75
2023/02/25 03:03:58;;;;;;;5.43;4.65;;;6.50;99.90;;;;;;5054617;28;20732;-77
2023/02/25 03:06:30;;;;;;;2.28;2.08;;;6.50;99.90;;;;;;5053026;28;20227;-76
2023/02/25 03:09:04;;;;;;;5.60;4.05;;;6.50;99.90;;;;;;5053598;28;20309;-77
2023/02/25 03:11:34;;;;;;;5.75;3.95;;;6.50;99.90;;;;;;5065772;28;20676;-77
2023/02/25 03:14:01;;;;;;;3.58;2.90;;;6.50;99.90;;;;;;5064047;28;20228;-77
2023/02/25 03:16:34;;;;;;;2.90;2.65;;;6.50;99.90;;;;;;5053483;28;20255;-77
2023/02/25 03:19:09;;;;;;;2.75;2.13;;;6.60;99.90;;;;;;5072019;28;20232;-77
2023/02/25 03:21:40;;;;;;;4.43;2.17;;;6.50;99.90;;;;;;5055148;28;20682;-77
2023/02/25 03:24:12;;;;;;;21.00;16.40;;;6.60;99.90;;;;;;5053483;28;20252;-77
2023/02/25 03:26:41;;;;;;;3.53;2.65;;;6.60;99.90;;;;;;5064127;28;20585;-75
2023/02/25 03:29:16;;;;;;;3.80;2.72;;;6.60;99.90;;;;;;5051021;28;20228;-75
2023/02/25 03:31:50;;;;;;;2.65;1.85;;;6.60;99.90;;;;;;5059602;28;20295;-75
2023/02/25 03:34:25;;;;;;;4.13;3.72;;;6.50;99.90;;;;;;5053944;28;20650;-75
2023/02/25 03:36:57;;;;;;;4.97;2.95;;;6.50;99.90;;;;;;5052565;28;20798;-75
2023/02/25 03:39:27;;;;;;;8.95;4.82;;;6.60;99.90;;;;;;5051493;28;20229;-75
2023/02/25 03:41:59;;;;;;;5.95;3.80;;;6.60;99.90;;;;;;5051793;28;20224;-75
2023/02/25 03:44:31;;;;;;;6.63;3.35;;;6.60;99.90;;;;;;5042340;28;20224;-77
2023/02/25 03:47:00;;;;;;;5.82;4.15;;;6.60;99.90;;;;;;5051703;28;20690;-75
2023/02/25 03:49:33;;;;;;;2.67;2.00;;;6.50;99.90;;;;;;5055086;28;20615;-75
2023/02/25 03:52:06;;;;;;;1.88;1.65;;;6.50;99.90;;;;;;5053213;28;20266;-77
2023/02/25 03:54:33;;;;;;;2.80;1.38;;;6.50;99.90;;;;;;5062799;28;20220;-75
2023/02/25 03:57:00;;;;;;;5.28;3.60;;;6.50;99.90;;;;;;5055266;28;20221;-77
2023/02/25 03:59:30;;;;;;;5.53;4.20;;;6.50;99.90;;;;;;5053940;28;20247;-76
2023/02/25 04:01:58;;;;;;;13.65;7.40;;;6.50;99.90;;;;;;5051267;28;20216;-75
2023/02/25 04:04:26;;;;;;;11.25;7.60;;;6.50;99.90;;;;;;5050600;28;20213;-77
2023/02/25 04:06:55;;;;;;;9.75;6.45;;;6.50;99.90;;;;;;5058512;28;20259;-77
2023/02/25 04:09:22;;;;;;;5.90;4.70;;;6.50;99.90;;;;;;5073887;28;20245;-75
2023/02/25 04:11:49;;;;;;;6.47;4.63;;;6.50;99.90;;;;;;5078196;28;20220;-75
2023/02/25 04:14:17;;;;;;;4.28;3.60;;;6.50;99.90;;;;;;5076242;28;20595;-77
2023/02/25 04:16:45;;;;;;;3.10;2.80;;;6.40;99.90;;;;;;5075669;28;20656;-75
2023/02/25 04:19:12;;;;;;;5.43;4.35;;;6.40;99.90;;;;;;5064519;28;20234;-77
2023/02/25 04:21:39;;;;;;;2.40;2.20;;;6.40;99.90;;;;;;5053909;28;20228;-75
2023/02/25 04:24:09;;;;;;;8.38;5.70;;;6.30;99.90;;;;;;5053109;28;20220;-76
2023/02/25 04:26:36;;;;;;;14.57;9.80;;;6.40;99.90;;;;;;5054542;28;20233;-75
2023/02/25 04:29:04;;;;;;;8.20;5.35;;;6.40;99.90;;;;;;5039593;28;20252;-77
2023/02/25 04:31:31;;;;;;;9.95;6.25;;;6.30;99.90;;;;;;5037122;28;20240;-76
2023/02/25 04:33:58;;;;;;;9.13;5.75;;;6.30;99.90;;;;;;5043965;28;20569;-77
2023/02/25 04:36:29;;;;;;;13.75;8.52;;;6.40;99.90;;;;;;5031121;28;20655;-77
2023/02/25 04:39:03;;;;;;;23.55;12.30;;;6.30;99.90;;;;;;5039302;28;20233;-77
2023/02/25 04:41:34;;;;;;;14.32;8.43;;;6.30;99.90;;;;;;5037387;28;20222;-75
2023/02/25 04:44:02;;;;;;;13.43;8.20;;;6.30;99.90;;;;;;5052183;28;20294;-75
2023/02/25 04:46:30;;;;;;;21.20;12.18;;;6.30;99.90;;;;;;5056496;28;20302;-77
2023/02/25 04:48:57;;;;;;;17.40;10.88;;;6.30;99.90;;;;;;5056076;28;20229;-77
2023/02/25 04:51:27;;;;;;;18.02;9.07;;;6.20;99.90;;;;;;5056344;28;20228;-77
2023/02/25 04:53:54;;;;;;;9.02;5.80;;;6.20;99.90;;;;;;5055840;28;20282;-77
2023/02/25 04:56:21;;;;;;;18.35;9.55;;;6.20;99.90;;;;;;5056032;28;20250;-77
2023/02/25 04:58:50;;;;;;;15.88;10.05;;;6.20;99.90;;;;;;5056755;28;20551;-75
2023/02/25 05:01:17;;;;;;;9.95;6.47;;;6.20;99.90;;;;;;5042805;28;20235;-75
2023/02/25 05:03:44;;;;;;;21.77;11.00;;;6.20;99.90;;;;;;5042208;28;20630;-75
2023/02/25 05:06:15;;;;;;;19.05;12.75;;;6.20;99.90;;;;;;5055093;28;20240;-77
2023/02/25 05:08:43;;;;;;;14.88;8.80;;;6.20;99.90;;;;;;5056393;28;20229;-75
2023/02/25 05:11:10;;;;;;;12.52;7.88;;;6.20;99.90;;;;;;5055996;28;20658;-75
2023/02/25 05:13:37;;;;;;;13.70;7.57;;;6.20;99.90;;;;;;5056040;28;20553;-75
2023/02/25 05:16:07;;;;;;;18.10;9.43;;;6.20;99.90;;;;;;5054078;28;20216;-77
2023/02/25 05:18:41;;;;;;;11.30;7.03;;;6.10;99.90;;;;;;5056192;28;20232;-77
2023/02/25 05:21:11;;;;;;;12.77;8.18;;;6.10;99.90;;;;;;5056058;28;20307;-76
2023/02/25 05:23:38;;;;;;;12.85;7.03;;;6.00;99.90;;;;;;5055965;28;20304;-75
2023/02/25 05:26:06;;;;;;;11.73;7.13;;;6.10;99.90;;;;;;5055360;28;20235;-75
2023/02/25 05:28:33;;;;;;;11.43;6.75;;;6.10;99.90;;;;;;5055570;28;20229;-75
2023/02/25 05:31:00;;;;;;;15.65;9.07;;;6.10;99.90;;;;;;5055827;28;20286;-78
2023/02/25 05:33:28;;;;;;;9.93;6.18;;;6.00;99.90;;;;;;5055395;28;20282;-77
2023/02/25 05:35:55;;;;;;;13.85;7.05;;;6.00;99.90;;;;;;5055417;28;20233;-76
2023/02/25 05:38:22;;;;;;;11.48;8.40;;;6.00;99.90;;;;;;5055237;28;20519;-76
2023/02/25 05:40:50;;;;;;;13.70;8.80;;;6.00;99.90;;;;;;5055623;28;20220;-75
2023/02/25 05:43:19;;;;;;;9.30;6.82;;;6.00;99.90;;;;;;5054494;28;20316;-75
2023/02/25 05:45:53;;;;;;;14.85;7.10;;;6.00;99.90;;;;;;5056037;28;20675;-77
2023/02/25 05:48:20;;;;;;;10.77;6.20;;;6.00;99.90;;;;;;5054452;28;20224;-77
2023/02/25 05:50:49;;;;;;;7.63;5.10;;;6.00;99.90;;;;;;5054773;28;20235;-76
2023/02/25 05:53:16;;;;;;;8.98;5.65;;;6.10;99.90;;;;;;5054462;28;20240;-76
2023/02/25 05:55:43;;;;;;;6.30;4.35;;;6.10;99.90;;;;;;5054945;28;20228;-78
2023/02/25 05:58:13;;;;;;;9.43;4.65;;;6.10;99.90;;;;;;5054218;28;20233;-76
2023/02/25 06:00:43;;;;;;;9.70;5.50;;;6.10;99.90;;;;;;5055044;28;20224;-77
2023/02/25 06:03:11;;;;;;;12.27;5.60;;;6.00;99.90;;;;;;5054430;28;20216;-77
2023/02/25 06:05:41;;;;;;;6.25;3.60;;;6.00;99.90;;;;;;5055061;28;20228;-77
2023/02/25 06:08:09;;;;;;;11.35;5.95;;;6.00;99.90;;;;;;5053943;28;20256;-76
2023/02/25 06:10:40;;;;;;;11.20;4.75;;;6.00;99.90;;;;;;5054484;28;20259;-76
2023/02/25 06:13:09;;;;;;;12.43;6.00;;;6.00;99.90;;;;;;5055078;28;20224;-77
2023/02/25 06:15:37;;;;;;;12.07;4.72;;;6.00;99.90;;;;;;5054530;28;20677;-77
2023/02/25 06:18:05;;;;;;;9.15;4.00;;;6.00;99.90;;;;;;5054885;28;20247;-75
2023/02/25 06:20:41;;;;;;;14.30;7.75;;;5.90;99.90;;;;;;5053927;28;20232;-77
2023/02/25 06:23:10;;;;;;;13.73;7.97;;;5.90;99.90;;;;;;5054719;28;20228;-77
2023/02/25 06:25:37;;;;;;;11.48;5.40;;;5.90;99.90;;;;;;5053590;28;21088;-75
2023/02/25 06:28:05;;;;;;;7.60;4.25;;;5.80;99.90;;;;;;5054804;28;20225;-75
2023/02/25 06:30:32;;;;;;;10.52;5.38;;;5.80;99.90;;;;;;5054140;28;20232;-75
2023/02/25 06:32:59;;;;;;;6.85;4.40;;;5.80;99.90;;;;;;5054541;28;20224;-75
2023/02/25 06:35:26;;;;;;;6.35;3.90;;;5.80;99.90;;;;;;5053651;28;20248;-75
2023/02/25 06:37:55;;;;;;;5.38;4.00;;;5.80;99.90;;;;;;5053786;28;20239;-75
2023/02/25 06:40:27;;;;;;;5.22;3.70;;;5.80;99.90;;;;;;5052900;28;20290;-78
2023/02/25 06:42:56;;;;;;;5.03;2.67;;;5.80;99.90;;;;;;5054083;28;20228;-76
2023/02/25 06:45:23;;;;;;;4.43;4.00;;;5.80;99.90;;;;;;5053190;28;20244;-76
2023/02/25 06:47:50;;;;;;;4.85;2.03;;;5.80;99.90;;;;;;5054113;28;20293;-76
2023/02/25 06:50:19;;;;;;;4.10;2.65;;;5.80;99.90;;;;;;5048247;28;20308;-76
2023/02/25 06:52:46;;;;;;;4.80;3.25;;;5.70;99.90;;;;;;5040001;28;20225;-76
2023/02/25 06:55:13;;;;;;;5.50;3.83;;;5.70;99.90;;;;;;5039711;28;20696;-77
2023/02/25 06:57:44;;;;;;;5.75;3.60;;;5.80;99.90;;;;;;5053594;28;20662;-77
2023/02/25 07:00:15;;;;;;;4.82;3.58;;;5.80;99.90;;;;;;5053904;28;20224;-77
2023/02/25 07:02:42;;;;;;;3.45;3.10;;;5.70;99.90;;;;;;5052856;28;20228;-77
2023/02/25 07:05:11;;;;;;;4.00;2.80;;;5.70;99.90;;;;;;5052532;28;20221;-75
2023/02/25 07:07:38;;;;;;;3.80;2.53;;;5.70;99.90;;;;;;5052030;28;20267;-75
2023/02/25 07:10:07;;;;;;;2.60;2.17;;;5.60;99.90;;;;;;5054074;28;20324;-75
2023/02/25 07:12:34;;;;;;;3.03;2.60;;;5.60;99.90;;;;;;5053661;28;20682;-75
2023/02/25 07:15:05;;;;;;;3.20;2.35;;;5.70;99.90;;;;;;5054041;28;20575;-75
2023/02/25 07:17:32;;;;;;;3.33;2.22;;;5.60;99.90;;;;;;5052947;28;20236;-77
2023/02/25 07:19:59;;;;;;;4.85;3.75;;;5.70;99.90;;;;;;5053892;28;20224;-76
2023/02/25 07:22:27;;;;;;;3.10;2.15;;;5.60;99.90;;;;;;5053103;28;20582;-76
2023/02/25 07:24:56;;;;;;;6.57;3.15;;;5.70;99.90;;;;;;5053591;28;20221;-78
2023/02/25 07:27:23;;;;;;;2.20;2.00;;;5.70;99.90;;;;;;5053160;28;20603;-78
2023/02/25 07:29:50;;;;;;;3.67;3.10;;;5.60;99.90;;;;;;5053142;28;20224;-77
2023/02/25 07:32:19;;;;;;;2.70;2.15;;;5.60;99.90;;;;;;5053040;28;20213;-78
2023/02/25 07:34:46;;;;;;;4.50;2.88;;;5.70;99.90;;;;;;5051525;28;20255;-78
2023/02/25 07:37:17;;;;;;;2.80;2.03;;;5.70;99.90;;;;;;5052722;28;20300;-76
2023/02/25 07:39:44;;;;;;;2.75;2.10;;;5.70;99.90;;;;;;5052441;28;20263;-78
2023/02/25 07:42:13;;;;;;;4.72;4.15;;;5.70;99.90;;;;;;5053084;28;20224;-76
2023/02/25 07:44:41;;;;;;;3.85;3.13;;;5.70;99.90;;;;;;5052295;28;20327;-78
2023/02/25 07:47:10;;;;;;;4.93;2.88;;;5.70;99.90;;;;;;5053101;28;20287;-76
2023/02/25 07:49:41;;;;;;;6.20;4.03;;;5.70;99.90;;;;;;5051632;28;20220;-77
2023/02/25 07:52:08;;;;;;;3.72;2.95;;;5.70;99.90;;;;;;5051455;28;20247;-75
2023/02/25 07:54:35;;;;;;;2.25;1.58;;;5.80;99.90;;;;;;5051475;28;20294;-75
2023/02/25 07:57:03;;;;;;;2.80;2.35;;;5.80;99.90;;;;;;5035606;28;20221;-76
2023/02/25 07:59:32;;;;;;;3.53;2.83;;;5.80;99.90;;;;;;5052140;28;20237;-77
2023/02/25 08:02:00;;;;;;;3.72;3.10;;;5.90;99.90;;;;;;5053148;28;20304;-77
2023/02/25 08:04:28;;;;;;;3.28;2.97;;;5.80;99.90;;;;;;5053293;28;20604;-77
2023/02/25 08:06:57;;;;;;;3.95;3.20;;;5.80;99.90;;;;;;5052972;28;21440;-78
2023/02/25 08:09:26;;;;;;;3.80;2.92;;;5.90;99.90;;;;;;5053263;28;20233;-78
2023/02/25 08:11:53;;;;;;;2.90;2.47;;;5.90;99.90;;;;;;5052018;28;20244;-78
2023/02/25 08:14:28;;;;;;;7.50;4.85;;;5.80;99.90;;;;;;5052972;28;20270;-76
2023/02/25 08:16:56;;;;;;;2.47;2.25;;;5.90;99.90;;;;;;5052191;28;20224;-77
2023/02/25 08:19:31;;;;;;;4.40;2.22;;;5.90;99.90;;;;;;5051720;28;20228;-78
2023/02/25 08:22:00;;;;;;;2.60;2.00;;;5.80;99.90;;;;;;5052684;28;20627;-76
2023/02/25 08:24:27;;;;;;;1.55;1.33;;;5.80;99.90;;;;;;5052970;28;20306;-76
2023/02/25 08:26:59;;;;;;;3.70;2.85;;;5.90;99.90;;;;;;5051862;28;20256;-75
2023/02/25 08:29:30;;;;;;;6.00;4.45;;;5.90;99.90;;;;;;5052111;28;20323;-76
2023/02/25 08:31:57;;;;;;;1.35;1.15;;;5.80;99.90;;;;;;5051949;28;20338;-75
2023/02/25 08:34:28;;;;;;;1.20;1.10;;;5.80;99.90;;;;;;5052493;28;20307;-76
2023/02/25 08:36:55;;;;;;;1.70;1.30;;;5.80;99.90;;;;;;5051653;28;20232;-75
2023/02/25 08:39:24;;;;;;;1.67;1.55;;;5.80;99.90;;;;;;5052502;28;20224;-75
2023/02/25 08:41:51;;;;;;;2.50;2.10;;;5.80;99.90;;;;;;5051485;28;20229;-75
2023/02/25 08:44:18;;;;;;;1.85;1.73;;;5.80;99.90;;;;;;5052699;28;20278;-77
2023/02/25 08:46:46;;;;;;;4.28;3.22;;;5.90;99.90;;;;;;5051863;28;20753;-75
2023/02/25 08:49:14;;;;;;;2.97;2.75;;;5.90;99.90;;;;;;5091933;22;20239;-75
2023/02/25 08:51:41;;;;;;;1.75;1.60;;;5.90;99.90;;;;;;5092103;28;20223;-77
2023/02/25 08:54:11;;;;;;;1.70;1.60;;;5.90;99.90;;;;;;5092526;28;20227;-75
2023/02/25 08:56:43;;;;;;;1.10;0.98;;;5.90;99.90;;;;;;5092039;28;20288;-76
2023/02/25 08:59:12;;;;;;;3.35;1.60;;;5.90;99.90;;;;;;5091999;28;20572;-76
2023/02/25 09:01:47;;;;;;;1.70;1.33;;;5.90;99.90;;;;;;5091999;28;20230;-76
2023/02/25 09:04:16;;;;;;;1.27;0.95;;;5.90;99.90;;;;;;5092484;28;20288;-75
2023/02/25 09:06:47;;;;;;;2.00;1.23;;;5.90;99.90;;;;;;5092359;28;20226;-76
2023/02/25 09:09:14;;;;;;;2.55;1.40;;;5.90;99.90;;;;;;5092098;28;20224;-75
2023/02/25 09:11:43;;;;;;;1.80;1.38;;;5.90;99.90;;;;;;5091941;28;20227;-77
2023/02/25 09:14:11;;;;;;;1.30;1.20;;;5.90;99.90;;;;;;5092393;28;20219;-77
2023/02/25 09:16:39;;;;;;;1.55;1.15;;;5.90;99.90;;;;;;5091418;28;20219;-76
2023/02/25 09:19:07;;;;;;;1.40;1.30;;;5.90;99.90;;;;;;5092164;28;20231;-76
2023/02/25 09:21:40;;;;;;;1.63;1.00;;;5.90;99.90;;;;;;5091907;28;20304;-76
2023/02/25 09:24:08;;;;;;;1.90;1.20;;;5.80;99.90;;;;;;5092540;28;20314;-75
2023/02/25 09:26:35;;;;;;;1.02;0.90;;;5.90;99.90;;;;;;5091869;28;20254;-76
2023/02/25 09:29:08;;;;;;;1.25;1.13;;;5.80;99.90;;;;;;5091753;28;20227;-75
2023/02/25 09:31:36;;;;;;;3.08;1.05;;;5.90;99.90;;;;;;5093653;28;20223;-77
2023/02/25 09:34:05;;;;;;;2.55;1.98;;;5.90;99.90;;;;;;5096367;28;20684;-75
2023/02/25 09:36:33;;;;;;;1.50;1.40;;;5.90;99.90;;;;;;5094767;28;20285;-78
2023/02/25 09:39:01;;;;;;;1.15;1.00;;;5.90;99.90;;;;;;5084395;28;20237;-76
2023/02/25 09:41:34;;;;;;;1.70;1.38;;;6.00;99.90;;;;;;5095977;28;20716;-76
2023/02/25 09:44:07;;;;;;;1.02;0.95;;;6.00;99.90;;;;;;5095607;28;20233;-77
2023/02/25 09:46:40;;;;;;;3.38;3.08;;;6.10;99.90;;;;;;5095649;28;20698;-79
2023/02/25 09:49:15;;;;;;;2.03;1.58;;;6.10;99.90;;;;;;5066598;28;20237;-78
2023/02/25 09:51:48;;;;;;;2.20;2.00;;;6.10;99.90;;;;;;5096055;28;20295;-77
2023/02/25 09:54:23;;;;;;;1.50;1.40;;;6.10;99.90;;;;;;5095347;28;20641;-77
2023/02/25 09:56:54;;;;;;;1.10;1.00;;;6.20;99.90;;;;;;5086152;28;20238;-78
2023/02/25 09:59:34;;;;;;;1.00;0.90;;;6.20;99.90;;;;;;5094421;28;20223;-78
2023/02/25 10:02:19;;;;;;;0.82;0.82;;;6.20;99.90;;;;;;5095929;28;20233;-79
2023/02/25 10:04:55;;;;;;;1.10;1.00;;;6.20;99.90;;;;;;5095720;28;20219;-78
2023/02/25 10:07:30;;;;;;;1.17;0.95;;;6.30;99.90;;;;;;5095203;28;20310;-78
2023/02/25 10:10:06;;;;;;;1.30;0.95;;;6.30;99.90;;;;;;5077341;28;20302;-78
2023/02/25 10:12:41;;;;;;;1.13;0.98;;;6.40;99.90;;;;;;5095380;28;20222;-78
2023/02/25 10:15:35;;;;;;;1.10;0.82;;;6.40;99.90;;;;;;5095206;28;20226;-77
2023/02/25 10:18:39;;;;;;;1.45;1.00;;;6.40;99.90;;;;;;5085086;28;20280;-77
2023/02/25 10:21:18;;;;;;;1.55;1.00;;;6.40;99.90;;;;;;5094564;28;20360;-76
2023/02/25 10:24:11;;;;;;;0.80;0.80;;;6.40;99.90;;;;;;5095310;28;20558;-75
2023/02/25 10:26:42;;;;;;;0.98;0.80;;;6.40;99.90;;;;;;5095298;28;20529;-77
2023/02/25 10:29:27;;;;;;;1.10;1.00;;;6.40;99.90;;;;;;5095063;28;20302;-75
2023/02/25 10:32:00;;;;;;;1.42;0.90;;;6.40;99.90;;;;;;5094289;28;20340;-75
2023/02/25 10:34:32;;;;;;;1.05;0.95;;;6.30;99.90;;;;;;5094887;28;20259;-78
2023/02/25 10:37:00;;;;;;;0.77;0.70;;;6.40;99.90;;;;;;5093903;28;20212;-77
2023/02/25 10:39:35;;;;;;;1.00;0.90;;;6.40;99.90;;;;;;5094753;28;20231;-75
2023/02/25 10:42:13;;;;;;;1.25;0.90;;;6.40;99.90;;;;;;5091390;28;20218;-77
2023/02/25 10:44:43;;;;;;;1.75;1.20;;;6.30;99.90;;;;;;5093662;28;20556;-77
2023/02/25 10:47:21;;;;;;;2.17;1.30;;;6.30;99.90;;;;;;5094088;28;20223;-75
2023/02/25 10:50:18;;;;;;;1.65;1.30;;;6.30;99.90;;;;;;5093880;28;20357;-75
2023/02/25 10:53:01;;;;;;;1.58;1.25;;;6.30;99.90;;;;;;5093120;28;20223;-75
2023/02/25 10:55:36;;;;;;;1.00;1.00;;;6.30;99.90;;;;;;5085865;28;20238;-75
2023/02/25 10:58:04;;;;;;;3.45;2.08;;;6.30;99.90;;;;;;5094446;28;20225;-75
2023/02/25 11:00:39;;;;;;;1.85;1.60;;;6.40;99.90;;;;;;5093455;28;20677;-75
2023/02/25 11:03:27;;;;;;;1.85;1.50;;;6.40;99.90;;;;;;5083433;28;20330;-75
2023/02/25 11:06:09;;;;;;;1.33;1.23;;;6.50;99.90;;;;;;5075799;28;20307;-76
2023/02/25 11:08:37;;;;;;;2.10;1.20;;;6.50;99.90;;;;;;5082626;28;20231;-75
2023/02/25 11:11:16;;;;;;;2.05;1.50;;;6.60;99.90;;;;;;5091969;28;20330;-75
2023/02/25 11:13:54;;;;;;;1.50;1.40;;;6.70;99.90;;;;;;5093965;28;20223;-76
2023/02/25 11:16:22;;;;;;;1.40;1.30;;;6.70;99.90;;;;;;5094348;28;20535;-76
2023/02/25 11:21:38;;;;;;;1.48;1.38;;;6.70;99.90;;;;;;5056809;28;20223;-77
2023/02/25 11:24:14;;;;;;;1.55;1.10;;;6.70;99.90;;;;;;5107275;28;20223;-75
2023/02/25 11:26:44;;;;;;;1.40;1.30;;;6.60;99.90;;;;;;5106765;28;20251;-77
2023/02/25 11:29:16;;;;;;;1.40;1.00;;;6.70;99.90;;;;;;5080767;28;20231;-75
2023/02/25 11:31:44;;;;;;;0.85;0.65;;;6.70;99.90;;;;;;5095170;28;20307;-75
2023/02/25 11:34:29;;;;;;;0.80;0.80;;;6.60;99.90;;;;;;5093074;28;20219;-75
2023/02/25 11:36:58;;;;;;;1.30;1.20;;;6.40;99.90;;;;;;5083389;28;20314;-77
2023/02/25 11:39:29;;;;;;;1.17;1.02;;;6.30;99.90;;;;;;5093947;28;20284;-78
2023/02/25 11:41:59;;;;;;;3.20;2.90;;;6.20;99.90;;;;;;5083265;28;20227;-77
2023/02/25 11:44:29;;;;;;;1.85;1.75;;;6.20;99.90;;;;;;5093443;28;20280;-75
2023/02/25 11:47:01;;;;;;;1.50;1.40;;;6.10;99.90;;;;;;5093360;28;20247;-75
2023/02/25 11:50:05;;;;;;;2.25;1.50;;;6.10;99.90;;;;;;5092384;28;20238;-76
2023/02/25 11:52:39;;;;;;;1.88;1.50;;;6.10;99.90;;;;;;5092799;28;20230;-75
2023/02/25 11:55:18;;;;;;;1.17;1.00;;;6.10;99.90;;;;;;5093116;28;20223;-75
2023/02/25 11:57:52;;;;;;;0.93;0.90;;;6.10;99.90;;;;;;5093516;28;20227;-77
2023/02/25 12:00:26;;;;;;;0.80;0.80;;;6.10;99.90;;;;;;5092061;28;20232;-76
2023/02/25 12:03:33;;;;;;;1.08;0.98;;;6.20;99.90;;;;;;5092940;28;20661;-76
2023/02/25 12:06:12;;;;;;;1.20;0.90;;;6.20;99.90;;;;;;5075198;28;20229;-75
2023/02/25 12:08:55;;;;;;;1.95;0.93;;;6.20;99.90;;;;;;5091905;28;20227;-76
2023/02/25 12:12:02;;;;;;;2.65;1.50;;;6.20;99.90;;;;;;5093395;28;20306;-77
2023/02/25 12:15:06;;;;;;;1.40;1.30;;;6.20;99.90;;;;;;5093211;28;20215;-76
2023/02/25 12:18:00;;;;;;;1.20;1.10;;;6.10;99.90;;;;;;5080972;28;20227;-74
2023/02/25 12:21:19;;;;;;;1.70;0.90;;;6.10;99.90;;;;;;5037979;28;20302;-77
2023/02/25 12:24:09;;;;;;;1.15;1.05;;;6.10;99.90;;;;;;4990981;28;20305;-76
2023/02/25 12:26:52;;;;;;;0.90;0.90;;;6.00;99.90;;;;;;4990736;28;20238;-77
2023/02/25 12:29:39;;;;;;;1.10;1.00;;;6.00;99.90;;;;;;5063921;28;20299;-78
2023/02/25 12:32:20;;;;;;;0.80;0.80;;;6.00;99.90;;;;;;5093556;28;20359;-75
2023/02/25 12:35:32;;;;;;;2.10;1.05;;;6.00;99.90;;;;;;5093182;28;20233;-75
2023/02/25 12:38:33;;;;;;;1.63;1.48;;;6.00;99.90;;;;;;5012923;28;20303;-77
2023/02/25 12:41:32;;;;;;;2.70;2.10;;;6.00;99.90;;;;;;5092156;28;20215;-76
2023/02/25 12:44:30;;;;;;;1.95;1.30;;;6.00;99.90;;;;;;5072757;28;20231;-76
2023/02/25 12:47:30;;;;;;;1.95;1.70;;;6.10;99.90;;;;;;5092130;28;20226;-77
2023/02/25 12:50:20;;;;;;;2.08;1.20;;;6.00;99.90;;;;;;5061612;28;20220;-77
2023/02/25 12:53:13;;;;;;;1.20;1.10;;;6.00;99.90;;;;;;5071718;28;20231;-75
2023/02/25 12:56:00;;;;;;;1.98;1.80;;;6.00;99.90;;;;;;5072012;28;20281;-77
2023/02/25 12:58:39;;;;;;;1.88;1.40;;;5.90;99.90;;;;;;5071933;28;20224;-75
2023/02/25 13:01:21;;;;;;;1.65;1.55;;;5.90;99.90;;;;;;5071522;28;20220;-76
2023/02/25 13:04:13;;;;;;;3.17;2.58;;;5.90;99.90;;;;;;5054241;28;20262;-78
2023/02/25 13:06:55;;;;;;;4.25;2.97;;;5.90;99.90;;;;;;5073912;28;20231;-77
2023/02/25 13:10:01;;;;;;;3.15;1.98;;;5.90;99.90;;;;;;5076780;28;20231;-75
2023/02/25 13:12:47;;;;;;;3.17;1.10;;;5.90;99.90;;;;;;5054987;28;20219;-77
2023/02/25 13:15:23;;;;;;;3.85;1.40;;;5.80;99.90;;;;;;5075949;28;20681;-75
2023/02/25 13:18:06;;;;;;;2.65;1.08;;;5.70;99.90;;;;;;5075975;28;20701;-77
2023/02/25 13:20:44;;;;;;;2.55;1.02;;;5.70;99.90;;;;;;5076174;28;20285;-77
2023/02/25 13:24:00;;;;;;;1.88;1.00;;;5.60;99.90;;;;;;5075439;28;20302;-77
2023/02/25 13:26:56;;;;;;;2.28;1.25;;;5.60;99.90;;;;;;5075912;28;20263;-75
2023/02/25 13:29:31;;;;;;;0.90;0.80;;;5.60;99.90;;;;;;5075387;28;20274;-75